createdAt,value
2018-06-21T00:00:25.879Z,21.97
2018-06-21T00:01:25.849Z,21.99
2018-06-21T00:02:26.013Z,21.96
2018-06-21T00:03:25.971Z,21.98
2018-06-21T00:04:26.020Z,21.99
2018-06-21T00:05:25.745Z,21.98
2018-06-21T00:06:25.952Z,21.99
2018-06-21T00:07:25.938Z,21.97
2018-06-21T00:08:25.692Z,21.97
2018-06-21T00:09:25.899Z,21.98
2018-06-21T00:10:25.870Z,21.97
2018-06-21T00:11:25.976Z,21.97
2018-06-21T00:12:25.829Z,21.98
2018-06-21T00:13:25.930Z,21.97
2018-06-21T00:14:25.790Z,21.96
2018-06-21T00:15:25.843Z,21.97
2018-06-21T00:16:25.868Z,21.97
2018-06-21T00:17:25.705Z,21.96
2018-06-21T00:18:26.062Z,21.97
2018-06-21T00:19:25.900Z,21.96
2018-06-21T00:20:25.887Z,21.96
2018-06-21T00:21:25.721Z,21.98
2018-06-21T00:22:25.778Z,21.97
2018-06-21T00:23:25.956Z,21.97
2018-06-21T00:24:25.743Z,21.97
2018-06-21T00:25:26.076Z,21.95
2018-06-21T00:26:35.801Z,21.97
2018-06-21T00:27:25.984Z,21.97
2018-06-21T00:28:25.819Z,21.95
2018-06-21T00:29:25.910Z,21.96
2018-06-21T00:30:25.934Z,21.97
2018-06-21T00:31:25.741Z,21.97
2018-06-21T00:32:25.909Z,21.97
2018-06-21T00:33:25.816Z,21.97
2018-06-21T00:34:25.810Z,21.97
2018-06-21T00:35:25.810Z,21.97
2018-06-21T00:36:25.885Z,21.97
2018-06-21T00:37:25.794Z,21.95
2018-06-21T00:38:25.934Z,21.97
2018-06-21T00:39:25.747Z,21.97
2018-06-21T00:40:25.711Z,21.97
2018-06-21T00:41:25.872Z,21.96
2018-06-21T00:42:25.872Z,21.97
2018-06-21T00:43:25.880Z,21.97
2018-06-21T00:44:25.906Z,21.96
2018-06-21T00:45:25.854Z,21.96
2018-06-21T00:46:25.902Z,21.96
2018-06-21T00:47:25.903Z,21.96
2018-06-21T00:48:25.655Z,21.97
2018-06-21T00:49:25.842Z,21.96
2018-06-21T00:50:25.798Z,21.96
2018-06-21T00:51:25.888Z,21.97
2018-06-21T00:52:25.848Z,21.95
2018-06-21T00:53:25.876Z,21.97
2018-06-21T00:54:26.260Z,21.97
2018-06-21T00:55:25.692Z,21.96
2018-06-21T00:56:26.131Z,21.95
2018-06-21T00:57:25.866Z,21.98
2018-06-21T00:58:25.705Z,21.97
2018-06-21T00:59:25.982Z,21.96
2018-06-21T01:00:25.873Z,21.97
2018-06-21T01:01:26.023Z,21.95
2018-06-21T01:02:25.997Z,21.96
2018-06-21T01:03:25.918Z,21.97
2018-06-21T01:04:25.775Z,21.96
2018-06-21T01:05:25.733Z,21.95
2018-06-21T01:06:25.920Z,21.96
2018-06-21T01:07:25.864Z,21.96
2018-06-21T01:08:26.061Z,21.96
2018-06-21T01:09:25.933Z,21.97
2018-06-21T01:10:25.787Z,21.98
2018-06-21T01:11:25.664Z,21.95
2018-06-21T01:12:25.830Z,21.95
2018-06-21T01:13:25.887Z,21.95
2018-06-21T01:14:25.903Z,21.97
2018-06-21T01:15:25.861Z,21.98
2018-06-21T01:16:25.853Z,21.94
2018-06-21T01:17:25.814Z,21.97
2018-06-21T01:18:25.872Z,21.95
2018-06-21T01:19:25.940Z,21.94
2018-06-21T01:20:25.678Z,21.94
2018-06-21T01:21:25.812Z,21.97
2018-06-21T01:22:25.685Z,21.94
2018-06-21T01:23:25.832Z,21.95
2018-06-21T01:24:25.993Z,21.95
2018-06-21T01:25:26.047Z,21.96
2018-06-21T01:26:25.772Z,21.95
2018-06-21T01:27:25.923Z,21.97
2018-06-21T01:28:25.869Z,21.94
2018-06-21T01:29:25.917Z,21.96
2018-06-21T01:30:25.886Z,21.96
2018-06-21T01:31:25.918Z,21.94
2018-06-21T01:32:25.689Z,21.95
2018-06-21T01:33:25.766Z,21.94
2018-06-21T01:34:25.682Z,21.95
2018-06-21T01:35:25.991Z,21.95
2018-06-21T01:36:25.882Z,21.94
2018-06-21T01:37:25.782Z,21.94
2018-06-21T01:38:25.818Z,21.95
2018-06-21T01:39:25.791Z,21.95
2018-06-21T01:40:25.801Z,21.94
2018-06-21T01:41:25.962Z,21.92
2018-06-21T01:42:25.813Z,21.96
2018-06-21T01:43:25.738Z,21.95
2018-06-21T01:44:25.850Z,21.94
2018-06-21T01:45:25.759Z,21.94
2018-06-21T01:46:25.836Z,21.93
2018-06-21T01:47:25.933Z,21.96
2018-06-21T01:48:25.947Z,21.94
2018-06-21T01:49:25.833Z,21.93
2018-06-21T01:50:25.915Z,21.95
2018-06-21T01:51:25.818Z,21.95
2018-06-21T01:52:25.683Z,21.94
2018-06-21T01:53:25.791Z,21.94
2018-06-21T01:54:26.056Z,21.94
2018-06-21T01:55:25.862Z,21.94
2018-06-21T01:56:25.794Z,21.95
2018-06-21T01:57:25.905Z,21.96
2018-06-21T01:58:25.969Z,21.95
2018-06-21T01:59:25.804Z,21.95
2018-06-21T02:00:25.922Z,21.94
2018-06-21T02:01:25.821Z,21.93
2018-06-21T02:02:25.727Z,21.94
2018-06-21T02:03:25.744Z,21.93
2018-06-21T02:04:26.120Z,21.94
2018-06-21T02:05:25.985Z,21.94
2018-06-21T02:06:26.078Z,21.95
2018-06-21T02:07:25.725Z,21.95
2018-06-21T02:08:25.892Z,21.94
2018-06-21T02:09:25.891Z,21.94
2018-06-21T02:10:25.807Z,21.95
2018-06-21T02:11:26.092Z,21.96
2018-06-21T02:12:25.841Z,21.95
2018-06-21T02:13:25.866Z,21.94
2018-06-21T02:14:25.929Z,21.93
2018-06-21T02:15:25.725Z,21.94
2018-06-21T02:16:25.728Z,21.94
2018-06-21T02:17:25.923Z,21.94
2018-06-21T02:18:25.806Z,21.94
2018-06-21T02:19:57.345Z,21.95
2018-06-21T02:20:25.875Z,21.94
2018-06-21T02:21:25.954Z,21.96
2018-06-21T02:22:25.615Z,21.93
2018-06-21T02:23:25.768Z,21.93
2018-06-21T02:24:26.084Z,21.96
2018-06-21T02:25:25.704Z,21.92
2018-06-21T02:26:25.824Z,21.94
2018-06-21T02:27:25.811Z,21.96
2018-06-21T02:28:25.805Z,21.93
2018-06-21T02:29:25.795Z,21.93
2018-06-21T02:30:25.832Z,21.94
2018-06-21T02:31:25.662Z,21.94
2018-06-21T02:32:25.885Z,21.94
2018-06-21T02:33:25.950Z,21.94
2018-06-21T02:34:26.470Z,21.94
2018-06-21T02:35:25.657Z,21.92
2018-06-21T02:36:25.773Z,21.94
2018-06-21T02:37:25.731Z,21.93
2018-06-21T02:38:25.889Z,21.94
2018-06-21T02:39:25.864Z,21.95
2018-06-21T02:40:25.689Z,21.94
2018-06-21T02:41:25.687Z,21.95
2018-06-21T02:42:25.772Z,21.94
2018-06-21T02:43:25.712Z,21.93
2018-06-21T02:44:25.728Z,21.94
2018-06-21T02:45:25.882Z,21.94
2018-06-21T02:46:25.674Z,21.94
2018-06-21T02:47:25.881Z,21.94
2018-06-21T02:48:25.896Z,21.94
2018-06-21T02:49:25.711Z,21.92
2018-06-21T02:50:25.797Z,21.94
2018-06-21T02:51:25.794Z,21.94
2018-06-21T02:52:25.889Z,21.93
2018-06-21T02:53:25.939Z,21.94
2018-06-21T02:54:25.848Z,21.93
2018-06-21T02:55:25.964Z,21.94
2018-06-21T02:56:25.833Z,21.94
2018-06-21T02:57:26.250Z,21.94
2018-06-21T02:58:25.746Z,21.93
2018-06-21T02:59:26.034Z,21.93
2018-06-21T03:00:25.840Z,21.94
2018-06-21T03:01:25.903Z,21.91
2018-06-21T03:02:25.804Z,21.94
2018-06-21T03:03:25.896Z,21.94
2018-06-21T03:04:25.737Z,21.93
2018-06-21T03:05:25.699Z,21.94
2018-06-21T03:06:25.974Z,21.94
2018-06-21T03:07:25.782Z,21.93
2018-06-21T03:08:25.732Z,21.94
2018-06-21T03:09:25.804Z,21.96
2018-06-21T03:10:25.873Z,21.91
2018-06-21T03:11:25.990Z,21.93
2018-06-21T03:12:25.851Z,21.93
2018-06-21T03:13:25.819Z,21.92
2018-06-21T03:14:25.744Z,21.94
2018-06-21T03:15:25.884Z,21.93
2018-06-21T03:16:25.840Z,21.93
2018-06-21T03:17:26.083Z,21.93
2018-06-21T03:18:25.698Z,21.92
2018-06-21T03:19:25.831Z,21.92
2018-06-21T03:20:25.767Z,21.93
2018-06-21T03:21:25.792Z,21.91
2018-06-21T03:22:25.692Z,21.92
2018-06-21T03:23:25.879Z,21.93
2018-06-21T03:24:25.919Z,21.94
2018-06-21T03:25:25.930Z,21.93
2018-06-21T03:26:25.833Z,21.93
2018-06-21T03:27:25.772Z,21.94
2018-06-21T03:28:25.768Z,21.94
2018-06-21T03:29:25.829Z,21.92
2018-06-21T03:30:25.834Z,21.92
2018-06-21T03:31:25.713Z,21.92
2018-06-21T03:32:25.847Z,21.94
2018-06-21T03:33:25.733Z,21.93
2018-06-21T03:34:25.857Z,21.94
2018-06-21T03:35:25.808Z,21.94
2018-06-21T03:36:25.725Z,21.93
2018-06-21T03:37:25.822Z,21.93
2018-06-21T03:38:25.751Z,21.92
2018-06-21T03:39:25.710Z,21.96
2018-06-21T03:40:25.831Z,21.93
2018-06-21T03:41:25.809Z,21.94
2018-06-21T03:42:25.953Z,21.94
2018-06-21T03:43:25.717Z,21.9
2018-06-21T03:44:25.811Z,21.92
2018-06-21T03:45:25.721Z,21.92
2018-06-21T03:46:25.916Z,21.93
2018-06-21T03:47:25.714Z,21.93
2018-06-21T03:48:25.787Z,21.95
2018-06-21T03:49:25.848Z,21.91
2018-06-21T03:50:26.060Z,21.95
2018-06-21T03:51:25.786Z,21.93
2018-06-21T03:52:25.863Z,21.92
2018-06-21T03:53:25.875Z,21.93
2018-06-21T03:54:25.948Z,21.93
2018-06-21T03:55:25.668Z,21.92
2018-06-21T03:56:25.734Z,21.94
2018-06-21T03:57:25.910Z,21.94
2018-06-21T03:58:25.770Z,21.93
2018-06-21T03:59:25.953Z,21.91
2018-06-21T04:00:25.837Z,21.92
2018-06-21T04:01:25.933Z,21.91
2018-06-21T04:02:25.839Z,21.91
2018-06-21T04:03:25.662Z,21.94
2018-06-21T04:04:25.646Z,21.94
2018-06-21T04:05:26.264Z,21.92
2018-06-21T04:06:25.817Z,21.94
2018-06-21T04:07:25.876Z,21.91
2018-06-21T04:08:26.187Z,21.92
2018-06-21T04:09:25.933Z,21.93
2018-06-21T04:10:25.758Z,21.91
2018-06-21T04:11:25.846Z,21.92
2018-06-21T04:12:25.630Z,21.93
2018-06-21T04:13:25.851Z,21.91
2018-06-21T04:14:25.894Z,21.93
2018-06-21T04:15:26.129Z,21.93
2018-06-21T04:16:25.719Z,21.93
2018-06-21T04:17:26.079Z,21.92
2018-06-21T04:18:25.776Z,21.92
2018-06-21T04:19:25.727Z,21.92
2018-06-21T04:20:25.778Z,21.92
2018-06-21T04:21:25.932Z,21.93
2018-06-21T04:22:25.822Z,21.91
2018-06-21T04:23:25.789Z,21.91
2018-06-21T04:24:25.848Z,21.92
2018-06-21T04:25:25.905Z,21.91
2018-06-21T04:26:25.793Z,21.91
2018-06-21T04:27:25.934Z,21.92
2018-06-21T04:28:25.655Z,21.9
2018-06-21T04:29:25.932Z,21.92
2018-06-21T04:30:25.881Z,21.94
2018-06-21T04:31:25.829Z,21.92
2018-06-21T04:32:26.109Z,21.93
2018-06-21T04:33:25.778Z,21.92
2018-06-21T04:34:25.737Z,21.94
2018-06-21T04:35:25.857Z,21.92
2018-06-21T04:36:25.712Z,21.91
2018-06-21T04:37:25.930Z,21.9
2018-06-21T04:38:25.761Z,21.92
2018-06-21T04:39:25.780Z,21.92
2018-06-21T04:40:25.777Z,21.91
2018-06-21T04:41:25.765Z,21.91
2018-06-21T04:42:25.907Z,21.94
2018-06-21T04:43:25.519Z,21.96
2018-06-21T04:44:25.714Z,21.96
2018-06-21T04:45:25.714Z,21.96
2018-06-21T04:46:25.884Z,21.95
2018-06-21T04:47:25.664Z,21.96
2018-06-21T04:48:25.918Z,21.96
2018-06-21T04:49:25.976Z,21.95
2018-06-21T04:50:25.841Z,21.95
2018-06-21T04:51:25.695Z,21.96
2018-06-21T04:52:25.952Z,21.93
2018-06-21T04:53:25.880Z,21.92
2018-06-21T04:54:25.716Z,21.94
2018-06-21T04:55:25.901Z,21.92
2018-06-21T04:56:25.818Z,21.93
2018-06-21T04:57:25.886Z,21.91
2018-06-21T04:58:25.774Z,21.93
2018-06-21T04:59:25.957Z,21.92
2018-06-21T05:00:25.781Z,21.91
2018-06-21T05:01:25.687Z,21.91
2018-06-21T05:02:25.788Z,21.93
2018-06-21T05:03:25.861Z,21.94
2018-06-21T05:04:25.917Z,21.9
2018-06-21T05:05:25.876Z,21.91
2018-06-21T05:06:26.056Z,21.91
2018-06-21T05:07:25.789Z,21.93
2018-06-21T05:08:25.860Z,21.92
2018-06-21T05:09:25.852Z,21.91
2018-06-21T05:10:25.717Z,21.9
2018-06-21T05:11:25.701Z,21.92
2018-06-21T05:12:25.743Z,21.93
2018-06-21T05:13:25.749Z,21.9
2018-06-21T05:14:25.791Z,21.91
2018-06-21T05:15:25.659Z,21.93
2018-06-21T05:16:25.668Z,21.91
2018-06-21T05:17:25.817Z,21.93
2018-06-21T05:18:25.837Z,21.93
2018-06-21T05:19:25.840Z,21.9
2018-06-21T05:20:27.354Z,21.92
2018-06-21T05:21:25.684Z,21.91
2018-06-21T05:22:25.700Z,21.91
2018-06-21T05:23:25.756Z,21.91
2018-06-21T05:24:25.698Z,21.93
2018-06-21T05:25:25.635Z,21.9
2018-06-21T05:26:25.810Z,21.91
2018-06-21T05:27:25.916Z,21.93
2018-06-21T05:28:25.766Z,21.94
2018-06-21T05:29:25.721Z,21.97
2018-06-21T05:30:25.709Z,21.96
2018-06-21T05:31:25.834Z,21.97
2018-06-21T05:32:25.739Z,21.95
2018-06-21T05:33:25.884Z,21.96
2018-06-21T05:34:25.803Z,21.95
2018-06-21T05:35:25.803Z,21.96
2018-06-21T05:36:25.909Z,21.94
2018-06-21T05:37:25.996Z,21.91
2018-06-21T05:38:25.658Z,21.93
2018-06-21T05:39:25.666Z,21.93
2018-06-21T05:40:25.793Z,21.92
2018-06-21T05:41:25.764Z,21.93
2018-06-21T05:42:26.202Z,21.92
2018-06-21T05:43:25.848Z,21.91
2018-06-21T05:44:26.129Z,21.92
2018-06-21T05:45:25.829Z,21.92
2018-06-21T05:46:25.766Z,21.92
2018-06-21T05:47:25.700Z,21.93
2018-06-21T05:48:25.715Z,21.91
2018-06-21T05:49:25.805Z,21.91
2018-06-21T05:50:25.832Z,21.94
2018-06-21T05:51:25.794Z,21.93
2018-06-21T05:52:25.876Z,21.91
2018-06-21T05:53:25.686Z,21.92
2018-06-21T05:54:25.764Z,21.93
2018-06-21T05:55:25.759Z,21.9
2018-06-21T05:56:25.749Z,21.94
2018-06-21T05:57:35.699Z,21.91
2018-06-21T05:58:25.691Z,21.91
2018-06-21T05:59:25.872Z,21.92
2018-06-21T06:00:25.890Z,21.91
2018-06-21T06:01:25.779Z,21.91
2018-06-21T06:02:25.632Z,21.92
2018-06-21T06:03:25.845Z,21.93
2018-06-21T06:04:25.763Z,21.93
2018-06-21T06:05:25.767Z,21.92
2018-06-21T06:06:25.898Z,21.93
2018-06-21T06:07:26.312Z,21.91
2018-06-21T06:08:26.196Z,21.91
2018-06-21T06:09:25.830Z,21.91
2018-06-21T06:10:25.870Z,21.92
2018-06-21T06:11:25.714Z,21.93
2018-06-21T06:12:25.812Z,21.92
2018-06-21T06:13:25.775Z,21.91
2018-06-21T06:14:25.739Z,21.92
2018-06-21T06:15:25.605Z,21.93
2018-06-21T06:16:25.723Z,21.92
2018-06-21T06:17:25.632Z,21.91
2018-06-21T06:18:25.724Z,21.92
2018-06-21T06:19:25.775Z,21.91
2018-06-21T06:20:25.675Z,21.91
2018-06-21T06:21:25.831Z,21.94
2018-06-21T06:22:25.668Z,21.92
2018-06-21T06:23:25.790Z,21.92
2018-06-21T06:24:26.018Z,21.92
2018-06-21T06:25:25.581Z,21.91
2018-06-21T06:26:25.773Z,21.92
2018-06-21T06:27:25.844Z,21.93
2018-06-21T06:28:25.662Z,21.91
2018-06-21T06:29:25.680Z,21.92
2018-06-21T06:30:25.893Z,21.92
2018-06-21T06:31:25.778Z,21.93
2018-06-21T06:32:25.793Z,21.92
2018-06-21T06:33:25.779Z,21.91
2018-06-21T06:34:25.774Z,21.91
2018-06-21T06:35:25.747Z,21.93
2018-06-21T06:36:25.848Z,21.92
2018-06-21T06:37:25.886Z,21.92
2018-06-21T06:38:25.797Z,21.91
2018-06-21T06:39:25.830Z,21.94
2018-06-21T06:40:25.923Z,21.9
2018-06-21T06:41:25.700Z,21.94
2018-06-21T06:42:25.893Z,21.92
2018-06-21T06:43:25.714Z,21.92
2018-06-21T06:44:25.830Z,21.91
2018-06-21T06:45:25.780Z,21.9
2018-06-21T06:46:25.893Z,21.91
2018-06-21T06:47:25.823Z,21.92
2018-06-21T06:48:25.740Z,21.92
2018-06-21T06:49:35.741Z,21.9
2018-06-21T06:50:25.860Z,21.92
2018-06-21T06:51:25.790Z,21.91
2018-06-21T06:52:25.713Z,21.92
2018-06-21T06:53:25.716Z,21.94
2018-06-21T06:54:26.216Z,21.93
2018-06-21T06:55:25.782Z,21.9
2018-06-21T06:56:25.714Z,21.9
2018-06-21T06:57:25.769Z,21.92
2018-06-21T06:58:25.726Z,21.92
2018-06-21T06:59:25.865Z,21.91
2018-06-21T07:00:25.696Z,21.91
2018-06-21T07:01:25.801Z,21.93
2018-06-21T07:02:25.821Z,21.91
2018-06-21T07:03:25.662Z,21.92
2018-06-21T07:04:25.933Z,21.91
2018-06-21T07:05:25.796Z,21.91
2018-06-21T07:06:25.798Z,21.93
2018-06-21T07:07:25.731Z,21.93
2018-06-21T07:08:26.026Z,21.91
2018-06-21T07:09:25.877Z,21.93
2018-06-21T07:10:25.680Z,21.92
2018-06-21T07:11:25.707Z,21.91
2018-06-21T07:12:25.629Z,21.93
2018-06-21T07:13:25.719Z,21.91
2018-06-21T07:14:26.008Z,21.92
2018-06-21T07:15:25.777Z,21.93
2018-06-21T07:16:25.767Z,21.92
2018-06-21T07:17:25.704Z,21.91
2018-06-21T07:18:25.833Z,21.92
2018-06-21T07:19:25.693Z,21.9
2018-06-21T07:20:26.267Z,21.92
2018-06-21T07:21:25.599Z,21.92
2018-06-21T07:22:25.964Z,21.89
2018-06-21T07:23:25.763Z,21.9
2018-06-21T07:24:25.715Z,21.91
2018-06-21T07:25:25.643Z,21.92
2018-06-21T07:26:25.805Z,21.91
2018-06-21T07:27:25.664Z,21.91
2018-06-21T07:28:25.970Z,21.91
2018-06-21T07:29:25.859Z,21.93
2018-06-21T07:30:25.623Z,21.93
2018-06-21T07:31:25.811Z,21.91
2018-06-21T07:32:25.716Z,21.93
2018-06-21T07:33:25.911Z,21.93
2018-06-21T07:34:25.816Z,21.92
2018-06-21T07:35:25.731Z,21.91
2018-06-21T07:36:25.809Z,21.91
2018-06-21T07:37:25.714Z,21.92
2018-06-21T07:38:25.719Z,21.91
2018-06-21T07:39:25.688Z,21.93
2018-06-21T07:40:25.676Z,21.91
2018-06-21T07:41:25.804Z,21.92
2018-06-21T07:42:25.804Z,21.91
2018-06-21T07:43:25.794Z,21.92
2018-06-21T07:44:25.845Z,21.92
2018-06-21T07:45:25.948Z,21.94
2018-06-21T07:46:25.766Z,21.91
2018-06-21T07:47:25.695Z,21.91
2018-06-21T07:48:25.663Z,21.92
2018-06-21T07:49:25.694Z,21.91
2018-06-21T07:50:25.700Z,21.92
2018-06-21T07:51:25.848Z,21.93
2018-06-21T07:52:25.830Z,21.91
2018-06-21T07:53:25.750Z,21.91
2018-06-21T07:54:25.797Z,21.94
2018-06-21T07:55:25.894Z,21.94
2018-06-21T07:56:25.756Z,21.92
2018-06-21T07:57:35.881Z,21.92
2018-06-21T07:58:25.984Z,21.92
2018-06-21T07:59:25.840Z,21.92
2018-06-21T08:00:25.791Z,21.92
2018-06-21T08:01:26.570Z,21.91
2018-06-21T08:02:25.808Z,21.92
2018-06-21T08:03:25.872Z,21.93
2018-06-21T08:04:25.882Z,21.91
2018-06-21T08:05:25.753Z,21.93
2018-06-21T08:06:25.783Z,21.93
2018-06-21T08:07:25.659Z,21.92
2018-06-21T08:08:25.780Z,21.93
2018-06-21T08:09:25.649Z,21.92
2018-06-21T08:10:25.966Z,21.91
2018-06-21T08:11:25.678Z,21.93
2018-06-21T08:12:25.804Z,21.92
2018-06-21T08:13:25.858Z,21.91
2018-06-21T08:14:25.724Z,21.92
2018-06-21T08:15:25.808Z,21.93
2018-06-21T08:16:25.747Z,21.92
2018-06-21T08:17:25.721Z,21.94
2018-06-21T08:18:25.770Z,21.92
2018-06-21T08:19:25.793Z,21.91
2018-06-21T08:20:26.110Z,21.93
2018-06-21T08:21:25.794Z,21.93
2018-06-21T08:22:25.550Z,21.91
2018-06-21T08:23:25.710Z,21.94
2018-06-21T08:24:25.821Z,21.92
2018-06-21T08:25:25.759Z,21.91
2018-06-21T08:26:25.687Z,21.94
2018-06-21T08:27:25.666Z,21.94
2018-06-21T08:28:25.699Z,21.92
2018-06-21T08:29:25.761Z,21.92
2018-06-21T08:30:25.847Z,21.92
2018-06-21T08:31:25.728Z,21.92
2018-06-21T08:32:25.782Z,21.92
2018-06-21T08:33:25.702Z,21.93
2018-06-21T08:34:25.868Z,21.92
2018-06-21T08:35:25.689Z,21.93
2018-06-21T08:36:25.860Z,21.93
2018-06-21T08:37:25.793Z,21.92
2018-06-21T08:38:25.895Z,21.94
2018-06-21T08:39:25.611Z,21.92
2018-06-21T08:40:25.630Z,21.92
2018-06-21T08:41:25.669Z,21.92
2018-06-21T08:42:25.687Z,21.91
2018-06-21T08:43:25.580Z,21.93
2018-06-21T08:44:25.756Z,21.92
2018-06-21T08:45:25.712Z,21.91
2018-06-21T08:46:25.684Z,21.92
2018-06-21T08:47:25.729Z,21.89
2018-06-21T08:48:25.781Z,21.93
2018-06-21T08:49:25.562Z,21.92
2018-06-21T08:50:25.644Z,21.91
2018-06-21T08:51:25.844Z,21.93
2018-06-21T08:52:25.791Z,21.91
2018-06-21T08:53:25.812Z,21.92
2018-06-21T08:54:25.975Z,21.92
2018-06-21T08:55:25.707Z,21.91
2018-06-21T08:56:25.790Z,21.92
2018-06-21T08:57:25.899Z,21.92
2018-06-21T08:58:26.076Z,21.93
2018-06-21T08:59:25.730Z,21.91
2018-06-21T09:00:25.601Z,21.92
2018-06-21T09:01:25.671Z,21.92
2018-06-21T09:02:25.748Z,21.93
2018-06-21T09:03:25.691Z,21.91
2018-06-21T09:04:25.750Z,21.93
2018-06-21T09:05:25.713Z,21.92
2018-06-21T09:06:25.742Z,21.94
2018-06-21T09:07:35.745Z,21.94
2018-06-21T09:08:25.822Z,21.92
2018-06-21T09:09:25.773Z,21.93
2018-06-21T09:10:25.738Z,21.91
2018-06-21T09:11:25.752Z,21.94
2018-06-21T09:12:25.716Z,21.94
2018-06-21T09:13:25.634Z,21.92
2018-06-21T09:14:25.755Z,21.93
2018-06-21T09:15:26.056Z,21.92
2018-06-21T09:16:25.726Z,21.92
2018-06-21T09:17:25.755Z,21.95
2018-06-21T09:18:25.594Z,21.93
2018-06-21T09:19:25.787Z,21.92
2018-06-21T09:20:26.009Z,21.92
2018-06-21T09:21:25.552Z,21.93
2018-06-21T09:22:25.661Z,21.93
2018-06-21T09:23:25.771Z,21.94
2018-06-21T09:24:25.772Z,21.91
2018-06-21T09:25:25.597Z,21.91
2018-06-21T09:26:25.711Z,21.92
2018-06-21T09:27:25.720Z,21.93
2018-06-21T09:28:25.879Z,21.91
2018-06-21T09:29:25.767Z,21.91
2018-06-21T09:30:25.712Z,21.91
2018-06-21T09:31:25.924Z,21.93
2018-06-21T09:32:25.752Z,21.93
2018-06-21T09:33:25.888Z,21.92
2018-06-21T09:34:25.811Z,21.92
2018-06-21T09:35:25.780Z,21.92
2018-06-21T09:36:25.814Z,21.91
2018-06-21T09:37:25.721Z,21.91
2018-06-21T09:38:25.863Z,21.94
2018-06-21T09:39:25.506Z,21.92
2018-06-21T09:40:25.751Z,21.94
2018-06-21T09:41:25.786Z,21.9
2018-06-21T09:42:25.700Z,21.94
2018-06-21T09:43:25.586Z,21.92
2018-06-21T09:44:25.640Z,21.93
2018-06-21T09:45:25.773Z,21.91
2018-06-21T09:46:34.599Z,21.92
2018-06-21T09:47:25.697Z,21.92
2018-06-21T09:48:25.638Z,21.94
2018-06-21T09:49:25.588Z,21.92
2018-06-21T09:50:25.788Z,21.91
2018-06-21T09:51:25.766Z,21.9
2018-06-21T09:52:25.951Z,21.93
2018-06-21T09:53:25.826Z,21.94
2018-06-21T09:54:25.750Z,21.91
2018-06-21T09:55:25.641Z,21.92
2018-06-21T09:56:25.785Z,21.93
2018-06-21T09:57:25.723Z,21.93
2018-06-21T09:58:25.711Z,21.93
2018-06-21T09:59:25.735Z,21.92
2018-06-21T10:00:25.729Z,21.94
2018-06-21T10:01:25.563Z,21.91
2018-06-21T10:02:26.045Z,21.95
2018-06-21T10:03:26.050Z,21.94
2018-06-21T10:04:25.972Z,21.92
2018-06-21T10:05:26.185Z,21.93
2018-06-21T10:06:25.838Z,21.93
2018-06-21T10:07:25.816Z,21.93
2018-06-21T10:08:26.816Z,21.93
2018-06-21T10:09:25.861Z,21.92
2018-06-21T10:10:25.977Z,21.91
2018-06-21T10:11:25.948Z,21.93
2018-06-21T10:12:26.788Z,21.94
2018-06-21T10:13:25.907Z,21.93
2018-06-21T10:14:25.720Z,21.93
2018-06-21T10:15:25.592Z,21.94
2018-06-21T10:16:25.802Z,21.91
2018-06-21T10:17:25.816Z,21.92
2018-06-21T10:18:25.795Z,21.94
2018-06-21T10:19:25.829Z,21.91
2018-06-21T10:20:26.132Z,21.93
2018-06-21T10:21:25.985Z,21.94
2018-06-21T10:22:25.768Z,21.91
2018-06-21T10:23:25.774Z,21.93
2018-06-21T10:24:25.731Z,21.94
2018-06-21T10:25:25.607Z,21.92
2018-06-21T10:26:25.625Z,21.93
2018-06-21T10:27:25.744Z,21.93
2018-06-21T10:28:25.684Z,21.93
2018-06-21T10:29:25.671Z,21.93
2018-06-21T10:30:25.668Z,21.95
2018-06-21T10:31:25.681Z,21.92
2018-06-21T10:32:25.783Z,21.91
2018-06-21T10:33:25.583Z,21.94
2018-06-21T10:34:25.740Z,21.93
2018-06-21T10:35:25.806Z,21.93
2018-06-21T10:36:25.765Z,21.93
2018-06-21T10:37:25.898Z,21.93
2018-06-21T10:38:25.895Z,21.94
2018-06-21T10:39:25.759Z,21.94
2018-06-21T10:40:25.894Z,21.92
2018-06-21T10:41:25.606Z,21.93
2018-06-21T10:42:25.913Z,21.94
2018-06-21T10:43:25.914Z,21.94
2018-06-21T10:44:25.752Z,21.94
2018-06-21T10:45:25.796Z,21.93
2018-06-21T10:46:25.774Z,21.92
2018-06-21T10:47:25.704Z,21.94
2018-06-21T10:48:25.774Z,21.96
2018-06-21T10:49:25.700Z,21.92
2018-06-21T10:50:25.581Z,21.93
2018-06-21T10:51:25.653Z,21.95
2018-06-21T10:52:25.528Z,21.93
2018-06-21T10:53:25.615Z,21.92
2018-06-21T10:54:25.601Z,21.94
2018-06-21T10:55:25.793Z,21.94
2018-06-21T10:56:25.722Z,21.93
2018-06-21T10:57:25.630Z,21.94
2018-06-21T10:58:25.708Z,21.93
2018-06-21T10:59:25.759Z,21.92
2018-06-21T11:00:25.502Z,21.93
2018-06-21T11:01:25.587Z,21.94
2018-06-21T11:02:25.579Z,21.94
2018-06-21T11:03:25.708Z,21.94
2018-06-21T11:04:25.771Z,21.93
2018-06-21T11:05:25.695Z,21.94
2018-06-21T11:06:25.671Z,21.94
2018-06-21T11:07:25.719Z,21.94
2018-06-21T11:08:25.666Z,21.94
2018-06-21T11:09:25.659Z,21.95
2018-06-21T11:10:25.563Z,21.93
2018-06-21T11:11:25.814Z,21.95
2018-06-21T11:12:25.684Z,21.94
2018-06-21T11:13:25.710Z,21.94
2018-06-21T11:14:25.633Z,21.93
2018-06-21T11:15:25.757Z,21.94
2018-06-21T11:16:25.738Z,21.94
2018-06-21T11:17:25.729Z,21.93
2018-06-21T11:18:25.669Z,21.94
2018-06-21T11:19:25.887Z,21.91
2018-06-21T11:20:25.756Z,21.93
2018-06-21T11:21:26.275Z,21.94
2018-06-21T11:22:25.746Z,21.92
2018-06-21T11:23:25.818Z,21.93
2018-06-21T11:24:25.854Z,21.95
2018-06-21T11:25:25.669Z,21.94
2018-06-21T11:26:25.723Z,21.93
2018-06-21T11:27:25.583Z,21.96
2018-06-21T11:28:25.818Z,21.94
2018-06-21T11:29:25.688Z,21.93
2018-06-21T11:30:25.743Z,21.95
2018-06-21T11:31:25.777Z,21.93
2018-06-21T11:32:25.814Z,21.94
2018-06-21T11:33:25.831Z,21.94
2018-06-21T11:34:25.783Z,21.93
2018-06-21T11:35:25.910Z,21.94
2018-06-21T11:36:35.634Z,21.94
2018-06-21T11:37:25.790Z,21.94
2018-06-21T11:38:25.737Z,21.94
2018-06-21T11:39:25.710Z,21.95
2018-06-21T11:40:25.808Z,21.95
2018-06-21T11:41:25.712Z,21.95
2018-06-21T11:42:25.862Z,21.93
2018-06-21T11:43:25.619Z,21.94
2018-06-21T11:44:25.824Z,21.94
2018-06-21T11:45:25.774Z,21.93
2018-06-21T11:46:25.758Z,21.93
2018-06-21T11:47:25.818Z,21.94
2018-06-21T11:48:25.935Z,21.94
2018-06-21T11:49:25.670Z,21.95
2018-06-21T11:50:25.588Z,21.95
2018-06-21T11:51:25.612Z,21.95
2018-06-21T11:52:25.791Z,21.94
2018-06-21T11:53:25.824Z,21.97
2018-06-21T11:54:25.725Z,21.94
2018-06-21T11:55:25.768Z,21.93
2018-06-21T11:56:25.791Z,21.94
2018-06-21T11:57:25.834Z,21.95
2018-06-21T11:58:25.682Z,21.94
2018-06-21T11:59:25.692Z,21.95
2018-06-21T12:00:25.740Z,21.95
2018-06-21T12:01:25.746Z,21.94
2018-06-21T12:02:25.819Z,21.94
2018-06-21T12:03:25.983Z,21.93
2018-06-21T12:04:25.743Z,21.93
2018-06-21T12:05:25.687Z,21.94
2018-06-21T12:06:25.624Z,21.94
2018-06-21T12:07:25.782Z,21.94
2018-06-21T12:08:25.527Z,21.97
2018-06-21T12:09:25.723Z,21.95
2018-06-21T12:10:25.733Z,21.93
2018-06-21T12:11:25.670Z,21.94
2018-06-21T12:12:25.680Z,21.95
2018-06-21T12:13:25.790Z,21.93
2018-06-21T12:14:25.639Z,21.95
2018-06-21T12:15:25.749Z,21.96
2018-06-21T12:16:25.724Z,21.94
2018-06-21T12:17:25.417Z,21.95
2018-06-21T12:18:25.840Z,21.97
2018-06-21T12:19:25.653Z,21.94
2018-06-21T12:20:25.791Z,21.96
2018-06-21T12:21:25.710Z,21.96
2018-06-21T12:22:25.788Z,21.94
2018-06-21T12:23:25.669Z,21.95
2018-06-21T12:24:25.609Z,21.94
2018-06-21T12:25:25.635Z,21.96
2018-06-21T12:26:26.329Z,21.96
2018-06-21T12:27:25.771Z,21.95
2018-06-21T12:28:25.758Z,21.96
2018-06-21T12:29:25.615Z,21.95
2018-06-21T12:30:25.703Z,21.97
2018-06-21T12:31:25.840Z,21.94
2018-06-21T12:32:25.790Z,21.95
2018-06-21T12:33:25.722Z,21.96
2018-06-21T12:34:25.527Z,21.93
2018-06-21T12:35:25.560Z,21.95
2018-06-21T12:36:25.718Z,21.96
2018-06-21T12:37:25.651Z,21.94
2018-06-21T12:38:25.998Z,21.94
2018-06-21T12:39:25.561Z,21.96
2018-06-21T12:40:25.518Z,21.95
2018-06-21T12:41:25.606Z,21.96
2018-06-21T12:42:25.721Z,21.97
2018-06-21T12:43:25.762Z,21.94
2018-06-21T12:44:56.228Z,21.96
2018-06-21T12:45:25.643Z,21.96
2018-06-21T12:46:25.838Z,21.95
2018-06-21T12:47:25.491Z,21.95
2018-06-21T12:48:25.674Z,21.96
2018-06-21T12:49:25.700Z,21.93
2018-06-21T12:50:25.495Z,21.97
2018-06-21T12:51:25.678Z,21.97
2018-06-21T12:52:26.202Z,21.93
2018-06-21T12:53:25.619Z,21.96